Time;durP1;ratioP1;P1;durP2;ratioP2;P2;SDS_P1;SDS_P2;PMS_P1;PMS_P2;Temp;Humidity;BMP_temperature;BMP_pressure;BME280_temperature;BME280_humidity;BME280_pressure;Samples;Min_cycle;Max_cycle;Signal;HPM_P1;HPM_P2
2023/02/03 03:02:34;;;;;;;11.47;10.80;;;5.70;99.90;;;;;;5041273;23;20227;-78
2023/02/03 03:05:04;;;;;;;11.03;10.43;;;5.70;99.90;;;;;;4919637;29;20213;-79
2023/02/03 03:07:39;;;;;;;11.13;10.50;;;5.70;99.90;;;;;;4913710;29;20204;-78
2023/02/03 03:10:10;;;;;;;11.60;10.80;;;5.70;99.90;;;;;;4926835;29;20235;-77
2023/02/03 03:12:41;;;;;;;11.40;10.63;;;5.70;99.90;;;;;;4912034;29;20213;-78
2023/02/03 03:15:13;;;;;;;11.33;10.70;;;5.70;99.90;;;;;;4912451;29;20678;-78
2023/02/03 03:17:45;;;;;;;11.30;10.70;;;5.70;99.90;;;;;;4913311;29;20641;-78
2023/02/03 03:20:18;;;;;;;11.23;10.60;;;5.70;99.90;;;;;;4910798;29;20208;-78
2023/02/03 03:22:51;;;;;;;11.33;10.70;;;5.70;99.90;;;;;;4910397;29;20233;-77
2023/02/03 03:25:20;;;;;;;11.70;11.00;;;5.70;99.90;;;;;;4915302;29;20560;-77
2023/02/03 03:27:51;;;;;;;11.10;10.50;;;5.70;99.90;;;;;;4912022;29;20304;-77
2023/02/03 03:30:23;;;;;;;11.23;10.60;;;5.70;99.90;;;;;;4912269;29;20211;-78
2023/02/03 03:32:51;;;;;;;11.10;10.50;;;5.70;99.90;;;;;;4911178;29;20264;-77
2023/02/03 03:35:19;;;;;;;11.10;10.50;;;5.70;99.90;;;;;;4911299;29;20671;-78
2023/02/03 03:37:53;;;;;;;10.97;10.37;;;5.70;99.90;;;;;;4906673;29;20681;-78
2023/02/03 03:40:25;;;;;;;11.00;10.40;;;5.70;99.90;;;;;;4902362;29;20210;-78
2023/02/03 03:42:58;;;;;;;11.13;10.50;;;5.70;99.90;;;;;;4914588;29;20289;-78
2023/02/03 03:45:31;;;;;;;11.30;10.70;;;5.70;99.90;;;;;;4916962;29;20250;-77
2023/02/03 03:48:04;;;;;;;11.10;10.43;;;5.70;99.90;;;;;;4913665;29;20233;-77
2023/02/03 03:50:34;;;;;;;11.33;10.60;;;5.70;99.90;;;;;;4907797;29;20319;-77
2023/02/03 03:53:04;;;;;;;11.07;10.47;;;5.70;99.90;;;;;;4903650;29;20264;-78
2023/02/03 03:55:34;;;;;;;11.80;10.97;;;5.70;99.90;;;;;;4896740;29;20203;-83
2023/02/03 03:58:04;;;;;;;11.20;10.60;;;5.70;99.90;;;;;;4896628;29;20210;-82
2023/02/03 04:00:34;;;;;;;11.87;11.17;;;5.70;99.90;;;;;;4906954;29;20210;-82
2023/02/03 04:03:10;;;;;;;11.07;10.37;;;5.70;99.90;;;;;;4896931;29;20221;-82
2023/02/03 04:05:39;;;;;;;11.03;10.43;;;5.80;99.90;;;;;;4897057;29;20257;-82
2023/02/03 04:08:06;;;;;;;11.00;10.40;;;5.70;99.90;;;;;;4889568;29;20257;-83
2023/02/03 04:10:35;;;;;;;11.10;10.50;;;5.80;99.90;;;;;;4896320;29;20738;-83
2023/02/03 04:13:03;;;;;;;11.30;10.70;;;5.80;99.90;;;;;;4905981;29;20208;-82
2023/02/03 04:15:30;;;;;;;11.70;11.00;;;5.80;99.90;;;;;;4898759;29;20198;-83
2023/02/03 04:18:00;;;;;;;11.27;10.67;;;5.80;99.90;;;;;;4909464;29;20210;-82
2023/02/03 04:20:29;;;;;;;11.33;10.73;;;5.80;99.90;;;;;;4892113;29;20206;-81
2023/02/03 04:22:56;;;;;;;11.73;10.90;;;5.80;99.90;;;;;;4901189;29;20226;-82
2023/02/03 04:25:23;;;;;;;11.70;11.00;;;5.80;99.90;;;;;;4914030;29;20229;-82
2023/02/03 04:27:50;;;;;;;11.80;11.10;;;5.80;99.90;;;;;;4914039;29;20202;-82
2023/02/03 04:30:18;;;;;;;11.80;11.17;;;5.80;99.90;;;;;;4903313;29;20205;-85
2023/02/03 04:32:45;;;;;;;11.33;10.73;;;5.80;99.90;;;;;;4909969;29;20221;-81
2023/02/03 04:35:12;;;;;;;11.83;11.13;;;5.80;99.90;;;;;;4913363;29;20205;-82
2023/02/03 04:37:40;;;;;;;11.37;10.77;;;5.80;99.90;;;;;;4908890;29;20206;-82
2023/02/03 04:40:08;;;;;;;11.53;10.93;;;5.80;99.90;;;;;;4905642;29;20238;-82
2023/02/03 04:42:36;;;;;;;11.70;11.00;;;5.80;99.90;;;;;;4914224;29;20236;-82
2023/02/03 04:45:04;;;;;;;11.23;10.63;;;5.80;99.90;;;;;;4907826;29;20418;-78
2023/02/03 04:47:31;;;;;;;11.37;10.77;;;5.80;99.90;;;;;;4913102;29;20292;-79
2023/02/03 04:49:58;;;;;;;11.27;10.67;;;5.80;99.90;;;;;;4911156;29;20264;-79
2023/02/03 04:52:27;;;;;;;11.13;10.53;;;5.80;99.90;;;;;;4908899;29;20228;-79
2023/02/03 04:54:55;;;;;;;11.07;10.37;;;5.80;99.90;;;;;;4915701;29;20208;-79
2023/02/03 04:57:22;;;;;;;11.13;10.43;;;5.80;99.90;;;;;;4907145;29;21488;-79
2023/02/03 04:59:48;;;;;;;11.20;10.60;;;5.80;99.90;;;;;;4910884;29;20205;-79
2023/02/03 05:02:15;;;;;;;11.10;10.50;;;5.80;99.90;;;;;;4913630;29;20256;-78
2023/02/03 05:04:42;;;;;;;11.57;10.90;;;5.80;99.90;;;;;;4902851;29;20627;-80
2023/02/03 05:07:09;;;;;;;11.50;10.90;;;5.80;99.90;;;;;;4905220;29;20680;-81
2023/02/03 05:09:36;;;;;;;11.60;11.00;;;5.80;99.90;;;;;;4903345;29;20213;-79
2023/02/03 05:12:05;;;;;;;11.50;10.80;;;5.80;99.90;;;;;;4910026;29;20217;-79
2023/02/03 05:14:32;;;;;;;11.60;11.00;;;5.80;99.90;;;;;;4910021;29;20687;-83
2023/02/03 05:16:59;;;;;;;11.53;10.93;;;5.80;99.90;;;;;;4887179;29;20224;-83
2023/02/03 05:19:26;;;;;;;11.27;10.67;;;5.80;99.90;;;;;;4895766;29;20629;-82
2023/02/03 05:21:52;;;;;;;11.23;10.53;;;5.80;99.90;;;;;;4890536;29;20794;-79
2023/02/03 05:24:19;;;;;;;11.10;10.50;;;5.80;99.90;;;;;;4904910;29;20228;-78
2023/02/03 05:26:46;;;;;;;11.47;10.67;;;5.80;99.90;;;;;;4908249;29;20209;-79
2023/02/03 05:29:14;;;;;;;11.20;10.60;;;5.80;99.90;;;;;;4912163;29;20292;-79
2023/02/03 05:31:41;;;;;;;11.40;10.60;;;5.70;99.90;;;;;;4912326;29;20722;-79
2023/02/03 05:34:08;;;;;;;11.50;10.90;;;5.80;99.90;;;;;;4909747;29;20214;-79
2023/02/03 05:36:34;;;;;;;11.90;11.20;;;5.70;99.90;;;;;;4916153;29;20309;-80
2023/02/03 05:39:01;;;;;;;12.00;11.30;;;5.70;99.90;;;;;;4914375;29;20553;-79
2023/02/03 05:44:14;;;;;;;11.40;10.80;;;5.70;99.90;;;;;;4919424;29;20257;-78
2023/02/03 05:46:40;;;;;;;11.80;11.10;;;5.70;99.90;;;;;;4915358;29;20192;-78
2023/02/03 05:49:07;;;;;;;11.53;10.83;;;5.70;99.90;;;;;;4913969;29;20244;-77
2023/02/03 05:51:34;;;;;;;11.47;10.87;;;5.70;99.90;;;;;;4910868;29;20281;-79
2023/02/03 05:54:01;;;;;;;11.60;11.00;;;5.70;99.90;;;;;;4914995;29;20746;-78
2023/02/03 05:56:28;;;;;;;11.70;11.00;;;5.70;99.90;;;;;;4897610;29;20205;-79
2023/02/03 05:58:55;;;;;;;12.00;11.30;;;5.60;99.90;;;;;;4913238;29;20220;-79
2023/02/03 06:01:23;;;;;;;12.10;11.40;;;5.60;99.90;;;;;;4914484;29;20228;-78
2023/02/03 06:03:50;;;;;;;12.43;11.73;;;5.60;99.90;;;;;;4903525;29;20877;-78
2023/02/03 06:06:17;;;;;;;12.10;11.40;;;5.60;99.90;;;;;;4915877;29;20205;-79
2023/02/03 06:08:44;;;;;;;11.87;11.27;;;5.60;99.90;;;;;;4913594;29;20200;-80
2023/02/03 06:11:11;;;;;;;12.90;12.07;;;5.60;99.90;;;;;;4916120;29;20229;-78
2023/02/03 06:13:38;;;;;;;12.00;11.30;;;5.50;99.90;;;;;;4913531;29;20740;-77
2023/02/03 06:16:05;;;;;;;11.80;11.20;;;5.50;99.90;;;;;;4913349;29;20300;-78
2023/02/03 06:18:33;;;;;;;12.10;11.40;;;5.50;99.90;;;;;;4918061;29;20196;-79
2023/02/03 06:21:01;;;;;;;12.27;11.57;;;5.50;99.90;;;;;;4914589;29;20229;-79
2023/02/03 06:23:28;;;;;;;12.03;11.40;;;5.50;99.90;;;;;;4908085;29;20772;-78
2023/02/03 06:25:55;;;;;;;12.00;11.40;;;5.50;99.90;;;;;;4912079;29;20216;-79
2023/02/03 06:28:21;;;;;;;12.60;11.90;;;5.50;99.90;;;;;;4910639;29;20219;-79
2023/02/03 06:30:51;;;;;;;12.10;11.30;;;5.50;99.90;;;;;;4914203;29;20243;-78
2023/02/03 06:33:19;;;;;;;11.70;11.10;;;5.50;99.90;;;;;;4913133;29;20677;-78
2023/02/03 06:35:47;;;;;;;12.13;11.43;;;5.60;99.90;;;;;;4910600;29;20206;-83
2023/02/03 06:38:14;;;;;;;11.87;11.17;;;5.60;99.90;;;;;;4897960;29;20206;-84
2023/02/03 06:40:40;;;;;;;12.00;11.30;;;5.50;99.90;;;;;;4904387;29;20200;-80
2023/02/03 06:43:07;;;;;;;11.53;10.83;;;5.60;99.90;;;;;;4910276;29;20228;-79
2023/02/03 06:45:34;;;;;;;11.57;10.87;;;5.50;99.90;;;;;;4910140;29;20234;-82
2023/02/03 06:48:01;;;;;;;12.00;11.20;;;5.50;99.90;;;;;;4905308;29;20206;-84
2023/02/03 06:50:28;;;;;;;11.70;11.10;;;5.60;99.90;;;;;;4899265;29;20204;-84
2023/02/03 06:52:56;;;;;;;12.17;11.37;;;5.60;99.90;;;;;;4915614;29;20193;-80
2023/02/03 06:55:23;;;;;;;11.60;11.00;;;5.60;99.90;;;;;;4915532;29;20268;-79
2023/02/03 06:57:50;;;;;;;11.80;11.10;;;5.60;99.90;;;;;;4913968;29;20303;-78
2023/02/03 07:00:18;;;;;;;12.00;11.30;;;5.60;99.90;;;;;;4908135;29;20244;-78
2023/02/03 07:02:45;;;;;;;11.80;11.17;;;5.60;99.90;;;;;;4909109;29;20235;-79
2023/02/03 07:05:12;;;;;;;12.20;11.50;;;5.70;99.90;;;;;;4914805;29;20212;-79
2023/02/03 07:07:39;;;;;;;12.40;11.60;;;5.70;99.90;;;;;;4912501;29;20243;-78
2023/02/03 07:10:09;;;;;;;11.30;10.70;;;5.60;99.90;;;;;;4911447;29;20205;-79
2023/02/03 07:12:36;;;;;;;12.20;11.40;;;5.60;99.90;;;;;;4904873;29;20225;-84
2023/02/03 07:15:03;;;;;;;11.97;11.27;;;5.70;99.90;;;;;;4883772;29;20297;-83
2023/02/03 07:17:30;;;;;;;12.10;11.40;;;5.60;99.90;;;;;;4886942;29;20210;-84
2023/02/03 07:19:57;;;;;;;12.10;11.40;;;5.70;99.90;;;;;;4900345;29;20262;-83
2023/02/03 07:22:24;;;;;;;11.90;11.30;;;5.70;99.90;;;;;;4917158;29;20308;-84
2023/02/03 07:24:51;;;;;;;13.80;12.63;;;5.70;99.90;;;;;;4908077;29;20276;-85
2023/02/03 07:27:19;;;;;;;17.10;15.60;;;5.70;99.90;;;;;;4911957;29;20280;-84
2023/02/03 07:29:46;;;;;;;16.80;15.30;;;5.70;99.90;;;;;;4910103;29;20210;-84
2023/02/03 07:32:13;;;;;;;17.23;15.67;;;5.80;99.90;;;;;;4913669;29;20235;-83
2023/02/03 07:34:39;;;;;;;14.97;13.87;;;5.80;99.90;;;;;;4912651;29;20240;-80
2023/02/03 07:37:06;;;;;;;14.00;13.10;;;5.80;99.90;;;;;;4908951;29;20262;-80
2023/02/03 07:39:33;;;;;;;12.80;12.00;;;5.90;99.90;;;;;;4912452;29;20217;-82
2023/02/03 07:42:00;;;;;;;13.03;12.03;;;5.90;99.90;;;;;;4907874;29;20221;-82
2023/02/03 07:44:30;;;;;;;12.00;11.30;;;6.00;99.90;;;;;;4895813;29;20674;-79
2023/02/03 07:46:56;;;;;;;12.50;11.70;;;6.00;99.90;;;;;;4897526;29;20234;-79
2023/02/03 07:49:23;;;;;;;11.80;11.20;;;6.00;99.90;;;;;;4907594;29;20205;-78
2023/02/03 07:51:50;;;;;;;12.30;11.60;;;6.10;99.90;;;;;;4908326;29;20253;-78
2023/02/03 07:54:17;;;;;;;11.90;11.10;;;6.10;99.90;;;;;;4914870;29;20205;-78
2023/02/03 07:56:44;;;;;;;11.80;11.10;;;6.10;99.90;;;;;;4911380;29;20301;-82
2023/02/03 07:59:10;;;;;;;11.87;11.07;;;6.20;99.90;;;;;;4910015;29;20210;-83
2023/02/03 08:01:38;;;;;;;11.20;10.60;;;6.20;99.90;;;;;;4915391;29;20256;-83
2023/02/03 08:04:05;;;;;;;11.63;10.90;;;6.20;99.90;;;;;;4900546;29;20226;-84
2023/02/03 08:06:32;;;;;;;12.03;11.23;;;6.20;99.90;;;;;;4916127;29;20201;-83
2023/02/03 08:08:59;;;;;;;11.73;11.03;;;6.20;99.90;;;;;;4914842;29;20213;-80
2023/02/03 08:11:26;;;;;;;12.30;11.60;;;6.20;99.90;;;;;;4917665;29;20282;-80
2023/02/03 08:13:53;;;;;;;12.07;11.27;;;6.10;99.90;;;;;;4907264;29;20203;-79
2023/02/03 08:16:20;;;;;;;11.80;11.20;;;6.10;99.90;;;;;;4897530;29;20206;-79
2023/02/03 08:18:48;;;;;;;11.40;10.80;;;6.20;99.90;;;;;;4896810;29;20211;-79
2023/02/03 08:21:15;;;;;;;11.67;10.87;;;6.20;99.90;;;;;;4896305;29;20782;-79
2023/02/03 08:23:41;;;;;;;12.00;11.20;;;6.20;99.90;;;;;;4910376;29;20269;-79
2023/02/03 08:26:08;;;;;;;11.53;10.83;;;6.20;99.90;;;;;;4897327;29;20210;-79
2023/02/03 08:28:35;;;;;;;11.63;11.00;;;6.20;99.90;;;;;;4913123;29;20199;-79
2023/02/03 08:31:02;;;;;;;11.77;11.07;;;6.20;99.90;;;;;;4900727;29;20235;-79
2023/02/03 08:33:29;;;;;;;11.73;10.97;;;6.20;99.90;;;;;;4903255;29;20285;-80
2023/02/03 08:35:59;;;;;;;12.00;11.30;;;6.30;99.90;;;;;;4906350;29;20293;-79
2023/02/03 08:38:26;;;;;;;12.20;11.50;;;6.30;99.90;;;;;;4915136;29;20202;-79
2023/02/03 08:40:52;;;;;;;11.77;11.17;;;6.30;99.90;;;;;;4909450;29;20226;-79
2023/02/03 08:43:20;;;;;;;11.70;11.10;;;6.40;99.90;;;;;;4913965;29;20247;-80
2023/02/03 08:45:46;;;;;;;11.97;11.27;;;6.40;99.90;;;;;;4909261;29;20695;-79
2023/02/03 08:48:13;;;;;;;12.00;11.30;;;6.50;99.90;;;;;;4901739;29;20333;-77
2023/02/03 08:50:43;;;;;;;12.23;11.43;;;6.50;99.90;;;;;;4902784;29;20207;-81
2023/02/03 08:53:11;;;;;;;12.37;11.60;;;6.50;99.90;;;;;;4901473;29;20207;-80
2023/02/03 08:55:39;;;;;;;12.10;11.30;;;6.50;99.90;;;;;;4903057;29;20279;-80
2023/02/03 08:58:06;;;;;;;11.03;10.43;;;6.50;99.90;;;;;;4911435;29;20755;-80
2023/02/03 09:00:33;;;;;;;11.53;10.77;;;6.50;99.90;;;;;;4903822;29;20594;-79
2023/02/03 09:03:00;;;;;;;11.40;10.70;;;6.60;99.90;;;;;;4909494;29;20273;-79
2023/02/03 09:05:27;;;;;;;11.53;10.80;;;6.60;99.90;;;;;;4911051;29;20203;-79
2023/02/03 09:07:54;;;;;;;11.43;10.83;;;6.70;99.90;;;;;;4911391;29;20234;-80
2023/02/03 09:10:22;;;;;;;11.30;10.70;;;6.80;99.90;;;;;;4914135;29;20267;-80
2023/02/03 09:12:49;;;;;;;11.43;10.80;;;6.80;99.90;;;;;;4907042;29;20249;-80
2023/02/03 09:15:16;;;;;;;11.90;11.27;;;6.80;99.90;;;;;;4904388;29;20208;-81
2023/02/03 09:17:42;;;;;;;12.30;11.40;;;6.80;99.90;;;;;;4900049;29;20258;-80
2023/02/03 09:20:12;;;;;;;11.17;10.57;;;6.80;99.90;;;;;;4915878;29;20257;-80
2023/02/03 09:22:38;;;;;;;10.73;10.03;;;6.80;99.90;;;;;;4912904;29;20256;-79
2023/02/03 09:25:06;;;;;;;11.10;10.47;;;6.90;99.90;;;;;;4911957;29;20211;-79
2023/02/03 09:27:34;;;;;;;11.00;10.40;;;6.90;99.90;;;;;;4910814;29;20226;-78
2023/02/03 09:30:01;;;;;;;11.00;10.40;;;7.00;99.90;;;;;;4908432;29;20215;-83
2023/02/03 09:32:28;;;;;;;11.00;10.40;;;7.00;99.90;;;;;;4905009;29;20598;-79
2023/02/03 09:34:55;;;;;;;11.17;10.57;;;7.10;99.90;;;;;;4910999;29;20302;-78
2023/02/03 09:37:21;;;;;;;11.20;10.60;;;7.20;99.90;;;;;;4907286;29;20203;-79
2023/02/03 09:39:48;;;;;;;11.20;10.60;;;7.30;99.90;;;;;;4912010;29;20228;-79
2023/02/03 09:42:36;;;;;;;11.53;10.80;;;7.40;99.90;;;;;;4911142;29;20605;-79
2023/02/03 09:45:12;;;;;;;11.50;10.90;;;7.50;99.90;;;;;;4909988;29;20211;-78
2023/02/03 09:47:41;;;;;;;11.00;10.30;;;7.60;99.90;;;;;;4900223;29;20212;-79
2023/02/03 09:50:14;;;;;;;11.60;10.90;;;7.60;99.90;;;;;;4896392;29;20254;-79
2023/02/03 09:52:43;;;;;;;11.77;11.07;;;7.60;99.90;;;;;;4895423;29;20220;-79
2023/02/03 09:55:20;;;;;;;13.57;12.67;;;7.60;99.90;;;;;;4900837;29;20209;-80
2023/02/03 09:57:55;;;;;;;12.10;11.33;;;7.70;99.90;;;;;;4906371;29;20220;-80
2023/02/03 10:00:26;;;;;;;12.20;11.50;;;7.70;99.90;;;;;;4912207;29;20588;-79
2023/02/03 10:02:57;;;;;;;11.20;10.60;;;7.80;99.90;;;;;;4908006;29;20756;-79
2023/02/03 10:05:36;;;;;;;11.17;10.47;;;7.70;99.90;;;;;;4914529;29;20203;-80
2023/02/03 10:08:12;;;;;;;10.73;10.13;;;7.70;99.90;;;;;;4899622;29;20681;-79
2023/02/03 10:10:40;;;;;;;10.70;10.10;;;7.60;99.90;;;;;;4899250;29;20260;-84
2023/02/03 10:13:22;;;;;;;10.93;10.23;;;7.60;99.90;;;;;;4897815;29;20204;-79
2023/02/03 10:16:04;;;;;;;10.60;10.00;;;7.60;99.90;;;;;;4908498;29;20211;-80
2023/02/03 10:18:35;;;;;;;10.93;10.33;;;7.60;99.90;;;;;;4902644;29;20704;-79
2023/02/03 10:21:07;;;;;;;11.27;10.47;;;7.70;99.90;;;;;;4906517;29;20259;-79
2023/02/03 10:23:37;;;;;;;11.07;10.37;;;7.70;99.90;;;;;;4915315;29;20218;-80
2023/02/03 10:26:07;;;;;;;11.00;10.40;;;7.80;99.90;;;;;;4896990;29;20204;-78
2023/02/03 10:28:39;;;;;;;10.80;10.20;;;8.00;99.90;;;;;;4896217;29;20272;-78
2023/02/03 10:31:16;;;;;;;11.17;10.40;;;8.10;99.90;;;;;;4912627;29;20235;-81
2023/02/03 10:33:42;;;;;;;11.00;10.40;;;8.20;99.90;;;;;;4899494;29;20227;-84
2023/02/03 10:36:19;;;;;;;11.20;10.50;;;8.20;99.90;;;;;;4901868;29;20208;-82
2023/02/03 10:38:56;;;;;;;11.33;10.70;;;8.20;99.90;;;;;;4918076;29;20802;-84
2023/02/03 10:41:24;;;;;;;11.40;10.70;;;8.20;99.90;;;;;;4911495;29;20227;-83
2023/02/03 10:43:54;;;;;;;11.23;10.53;;;8.20;99.90;;;;;;4909552;29;20262;-81
2023/02/03 10:46:26;;;;;;;10.87;10.27;;;8.20;99.90;;;;;;4912245;29;20208;-81
2023/02/03 10:48:54;;;;;;;10.90;10.30;;;8.00;99.90;;;;;;4911124;29;20259;-82
2023/02/03 10:51:22;;;;;;;11.03;10.30;;;8.00;99.90;;;;;;4913985;29;20252;-83
2023/02/03 10:53:52;;;;;;;11.33;10.73;;;7.90;99.90;;;;;;4913061;29;20278;-82
2023/02/03 10:56:22;;;;;;;11.20;10.60;;;7.90;99.90;;;;;;4911320;29;20880;-83
2023/02/03 10:58:53;;;;;;;11.77;11.07;;;7.90;99.90;;;;;;4903711;29;20622;-83
2023/02/03 11:01:21;;;;;;;12.10;11.30;;;8.00;99.90;;;;;;4896844;29;20246;-81
2023/02/03 11:04:00;;;;;;;11.80;11.00;;;8.00;99.90;;;;;;4893386;29;20217;-82
2023/02/03 11:06:28;;;;;;;12.23;11.43;;;7.90;99.90;;;;;;4900830;29;20579;-79
2023/02/03 11:08:55;;;;;;;12.03;11.23;;;8.00;99.90;;;;;;4912233;29;20207;-81
2023/02/03 11:11:24;;;;;;;11.70;11.00;;;8.00;99.90;;;;;;4911687;29;20232;-83
2023/02/03 11:14:11;;;;;;;11.77;11.17;;;8.00;99.90;;;;;;4913457;29;20200;-82
2023/02/03 11:16:39;;;;;;;11.50;10.90;;;8.10;99.90;;;;;;4903693;29;20195;-77
2023/02/03 11:19:15;;;;;;;11.43;10.83;;;8.10;99.90;;;;;;4897367;29;20577;-79
2023/02/03 11:21:44;;;;;;;11.83;11.23;;;8.10;99.90;;;;;;4912301;29;20215;-78
2023/02/03 11:24:18;;;;;;;12.43;11.53;;;8.20;99.90;;;;;;4910105;29;20223;-77
2023/02/03 11:26:49;;;;;;;11.70;11.00;;;8.20;99.90;;;;;;4903342;29;20672;-79
2023/02/03 11:29:22;;;;;;;12.03;11.37;;;8.30;99.90;;;;;;4911763;29;20201;-79
2023/02/03 11:31:52;;;;;;;11.43;10.73;;;8.30;99.90;;;;;;4912044;29;20228;-84
2023/02/03 11:34:23;;;;;;;11.70;11.07;;;8.30;99.90;;;;;;4913416;29;20196;-79
2023/02/03 11:36:50;;;;;;;11.27;10.67;;;8.20;99.90;;;;;;4912777;29;20668;-79
2023/02/03 11:39:28;;;;;;;11.50;10.90;;;8.10;99.90;;;;;;4907934;29;20283;-79
2023/02/03 11:41:56;;;;;;;11.57;10.80;;;8.10;99.90;;;;;;4912238;29;20313;-79
2023/02/03 11:44:28;;;;;;;11.43;10.73;;;8.10;99.90;;;;;;4902505;29;20267;-79
2023/02/03 11:46:59;;;;;;;11.47;10.87;;;8.00;99.90;;;;;;4912422;29;20303;-79
2023/02/03 11:49:54;;;;;;;11.47;10.87;;;7.90;99.90;;;;;;4903509;29;20215;-77
2023/02/03 11:52:37;;;;;;;11.60;10.90;;;7.90;99.90;;;;;;4915041;29;20585;-78
2023/02/03 11:55:16;;;;;;;11.30;10.50;;;7.80;99.90;;;;;;4910241;29;20275;-78
2023/02/03 11:57:52;;;;;;;10.93;10.33;;;7.80;99.90;;;;;;4908543;29;20215;-77
2023/02/03 12:00:32;;;;;;;11.60;10.90;;;7.80;99.90;;;;;;4912783;29;20633;-78
2023/02/03 12:03:22;;;;;;;10.63;9.93;;;7.70;99.90;;;;;;4906761;29;20208;-78
2023/02/03 12:06:11;;;;;;;10.50;9.90;;;7.80;99.90;;;;;;4893085;29;20207;-78
2023/02/03 12:09:03;;;;;;;10.97;10.37;;;7.70;99.90;;;;;;4900477;29;20251;-78
2023/02/03 12:11:42;;;;;;;11.30;10.70;;;7.70;99.90;;;;;;4907519;29;20283;-79
2023/02/03 12:14:23;;;;;;;11.40;10.80;;;7.60;99.90;;;;;;4913406;29;20560;-79
2023/02/03 12:17:14;;;;;;;11.07;10.47;;;7.60;99.90;;;;;;4907299;29;20203;-79
2023/02/03 12:20:00;;;;;;;11.00;10.27;;;7.70;99.90;;;;;;4904357;29;20753;-78
2023/02/03 12:22:33;;;;;;;11.20;10.60;;;7.70;99.90;;;;;;4908240;29;20227;-78
2023/02/03 12:25:10;;;;;;;11.43;10.83;;;7.70;99.90;;;;;;4910074;29;20216;-78
2023/02/03 12:27:45;;;;;;;11.30;10.50;;;7.70;99.90;;;;;;4897393;29;20196;-78
2023/02/03 12:30:19;;;;;;;11.50;10.83;;;7.80;99.90;;;;;;4911681;29;20677;-79
2023/02/03 12:32:54;;;;;;;11.57;10.97;;;7.70;99.90;;;;;;4911141;29;20231;-78
2023/02/03 12:35:25;;;;;;;11.30;10.60;;;7.70;99.90;;;;;;4912262;29;20208;-78
2023/02/03 12:37:58;;;;;;;11.20;10.50;;;7.70;99.90;;;;;;4909613;29;20208;-78
2023/02/03 12:40:34;;;;;;;11.37;10.77;;;7.70;99.90;;;;;;4905074;29;20263;-79
2023/02/03 12:43:17;;;;;;;12.23;11.50;;;7.70;99.90;;;;;;4911249;29;20211;-79
2023/02/03 12:45:50;;;;;;;11.60;10.90;;;7.70;99.90;;;;;;4903329;29;20799;-79
2023/02/03 12:48:23;;;;;;;11.50;10.80;;;7.60;99.90;;;;;;4912766;29;20275;-79
2023/02/03 12:50:53;;;;;;;12.43;11.57;;;7.70;99.90;;;;;;4909813;29;20231;-79
2023/02/03 12:53:24;;;;;;;14.60;13.27;;;7.80;99.90;;;;;;4899196;29;20668;-79
2023/02/03 12:55:59;;;;;;;18.73;15.53;;;7.90;99.90;;;;;;4908483;29;20206;-79
2023/02/03 12:58:29;;;;;;;18.60;16.60;;;8.00;99.90;;;;;;4911763;29;20672;-79
2023/02/03 13:01:00;;;;;;;13.77;12.67;;;8.00;99.90;;;;;;4912815;29;20232;-78
2023/02/03 13:03:33;;;;;;;12.30;11.40;;;8.00;99.90;;;;;;4910302;29;20203;-78
2023/02/03 13:06:08;;;;;;;10.70;10.10;;;8.00;99.90;;;;;;4912957;29;20958;-76
2023/02/03 13:08:39;;;;;;;11.10;10.43;;;7.90;99.90;;;;;;4906526;29;20231;-79
2023/02/03 13:11:19;;;;;;;11.30;10.70;;;7.90;99.90;;;;;;4896168;29;20228;-79
2023/02/03 13:13:50;;;;;;;11.10;10.40;;;7.90;99.90;;;;;;4912022;29;20203;-82
2023/02/03 13:16:22;;;;;;;10.80;10.17;;;7.90;99.90;;;;;;4912850;29;20236;-83
2023/02/03 13:18:58;;;;;;;10.73;10.13;;;7.80;99.90;;;;;;4905018;29;20208;-80
2023/02/03 13:21:25;;;;;;;10.67;10.07;;;7.70;99.90;;;;;;4898323;29;20224;-83
2023/02/03 13:23:52;;;;;;;11.00;10.40;;;7.70;99.90;;;;;;4906787;29;20215;-81
2023/02/03 13:26:37;;;;;;;11.00;10.40;;;7.70;99.90;;;;;;4912399;29;20628;-80
2023/02/03 13:29:19;;;;;;;11.20;10.60;;;7.80;99.90;;;;;;4908386;29;20235;-79
2023/02/03 13:31:59;;;;;;;10.73;10.13;;;7.80;99.90;;;;;;4913384;29;20257;-80
2023/02/03 13:34:48;;;;;;;11.30;10.60;;;7.80;99.90;;;;;;4912866;29;20264;-80
2023/02/03 13:37:37;;;;;;;11.20;10.60;;;7.70;99.90;;;;;;4915352;29;20199;-80
2023/02/03 13:40:22;;;;;;;11.33;10.70;;;7.70;99.90;;;;;;4910426;29;20203;-80
2023/02/03 13:42:55;;;;;;;11.23;10.63;;;7.60;99.90;;;;;;4905369;29;20258;-80
2023/02/03 13:45:28;;;;;;;11.60;10.80;;;7.60;99.90;;;;;;4908311;29;20755;-80
2023/02/03 13:47:56;;;;;;;10.80;10.20;;;7.60;99.90;;;;;;4914853;29;20630;-80
2023/02/03 13:50:28;;;;;;;10.70;10.20;;;7.60;99.90;;;;;;4914510;29;20251;-79
2023/02/03 13:53:00;;;;;;;10.87;10.27;;;7.60;99.90;;;;;;4915612;29;20223;-80
2023/02/03 13:55:33;;;;;;;10.93;10.33;;;7.60;99.90;;;;;;4913070;29;20232;-80
2023/02/03 13:58:00;;;;;;;10.90;10.30;;;7.60;99.90;;;;;;4913725;29;20204;-80
2023/02/03 14:01:17;;;;;;;11.10;10.50;;;7.60;99.90;;;;;;4893182;29;20240;-79
2023/02/03 14:03:46;;;;;;;11.20;10.50;;;7.60;99.90;;;;;;4907629;29;20597;-80
2023/02/03 14:06:59;;;;;;;11.00;10.40;;;7.70;99.90;;;;;;4911382;29;20238;-80
2023/02/03 14:10:04;;;;;;;11.07;10.47;;;7.70;99.90;;;;;;4916408;29;20277;-79
2023/02/03 14:12:34;;;;;;;10.63;10.03;;;7.70;99.90;;;;;;4898489;29;20222;-81
2023/02/03 14:15:17;;;;;;;11.00;10.40;;;7.70;99.90;;;;;;4913832;29;20207;-79
2023/02/03 14:18:26;;;;;;;11.20;10.60;;;7.60;99.90;;;;;;4902080;29;20211;-80
2023/02/03 14:21:16;;;;;;;11.00;10.37;;;7.60;99.90;;;;;;4903446;29;20662;-80
2023/02/03 14:23:52;;;;;;;10.20;9.70;;;7.60;99.90;;;;;;4900187;29;20203;-79
2023/02/03 14:26:31;;;;;;;10.27;9.67;;;7.70;99.90;;;;;;4913616;29;20232;-79
2023/02/03 14:28:59;;;;;;;10.50;9.90;;;7.60;99.90;;;;;;4913301;29;20207;-80
2023/02/03 14:31:27;;;;;;;10.80;10.10;;;7.60;99.90;;;;;;4917182;29;20240;-79
2023/02/03 14:34:12;;;;;;;11.10;10.50;;;7.60;99.90;;;;;;4915716;29;20263;-80
2023/02/03 14:36:53;;;;;;;11.10;10.50;;;7.60;99.90;;;;;;4907150;29;20195;-80
2023/02/03 14:39:54;;;;;;;11.20;10.60;;;7.60;99.90;;;;;;4911533;29;20226;-77
2023/02/03 14:42:55;;;;;;;11.13;10.53;;;7.60;99.90;;;;;;4917142;29;20570;-80
2023/02/03 14:45:47;;;;;;;10.57;10.00;;;7.60;99.90;;;;;;4917842;29;20662;-80
2023/02/03 14:48:36;;;;;;;10.47;9.87;;;7.60;99.90;;;;;;4916318;29;20226;-79
2023/02/03 14:51:12;;;;;;;10.70;10.10;;;7.60;99.90;;;;;;4915585;29;20223;-81
2023/02/03 14:54:05;;;;;;;10.87;10.27;;;7.60;99.90;;;;;;4907123;29;20258;-80
2023/02/03 14:59:39;;;;;;;10.90;10.30;;;7.60;99.90;;;;;;4917421;29;20207;-80
2023/02/03 15:02:16;;;;;;;10.47;9.90;;;7.60;99.90;;;;;;4915664;29;20355;-80
2023/02/03 15:04:44;;;;;;;10.80;10.20;;;7.60;99.90;;;;;;4914103;29;20226;-80
2023/02/03 15:07:43;;;;;;;10.70;10.03;;;7.60;99.90;;;;;;4912148;29;20586;-80
2023/02/03 15:10:15;;;;;;;10.57;9.97;;;7.60;99.90;;;;;;4910386;29;20269;-79
2023/02/03 15:12:48;;;;;;;10.40;9.80;;;7.50;99.90;;;;;;4914352;29;20228;-80
2023/02/03 15:15:24;;;;;;;10.50;9.90;;;7.50;99.90;;;;;;4914701;29;20269;-80
2023/02/03 15:17:56;;;;;;;10.80;10.20;;;7.50;99.90;;;;;;4913624;29;20211;-79
2023/02/03 15:20:31;;;;;;;10.50;9.90;;;7.50;99.90;;;;;;4910900;29;20247;-80
2023/02/03 15:22:58;;;;;;;11.10;10.40;;;7.50;99.90;;;;;;4913394;29;20212;-80
2023/02/03 15:25:27;;;;;;;11.50;10.80;;;7.50;99.90;;;;;;4914914;29;20274;-79
2023/02/03 15:27:54;;;;;;;11.80;11.00;;;7.40;99.90;;;;;;4913220;29;20623;-80
2023/02/03 15:30:26;;;;;;;11.80;11.17;;;7.40;99.90;;;;;;4910460;29;20290;-80
2023/02/03 15:33:01;;;;;;;12.97;12.10;;;7.40;99.90;;;;;;4910532;29;20242;-80
2023/02/03 15:35:32;;;;;;;12.53;11.53;;;7.40;99.90;;;;;;4911225;29;20199;-79
2023/02/03 15:38:03;;;;;;;11.70;11.00;;;7.30;99.90;;;;;;4911210;29;20240;-84
2023/02/03 15:40:37;;;;;;;11.27;10.50;;;7.30;99.90;;;;;;4896461;29;20262;-80
2023/02/03 15:43:11;;;;;;;10.83;10.17;;;7.30;99.90;;;;;;4911727;29;20200;-82
2023/02/03 15:45:46;;;;;;;11.07;10.37;;;7.30;99.90;;;;;;4910960;29;20264;-83
2023/02/03 15:48:19;;;;;;;11.07;10.37;;;7.30;99.90;;;;;;4891750;29;20216;-81
2023/02/03 15:50:48;;;;;;;10.80;10.20;;;7.20;99.90;;;;;;4903070;29;20293;-79
2023/02/03 15:53:20;;;;;;;11.07;10.47;;;7.20;99.90;;;;;;4901172;29;20666;-81
2023/02/03 15:55:50;;;;;;;11.37;10.77;;;7.20;99.90;;;;;;4908997;29;20266;-83
2023/02/03 15:58:18;;;;;;;10.57;9.97;;;7.20;99.90;;;;;;4910485;29;20211;-78
2023/02/03 16:00:52;;;;;;;10.60;10.00;;;7.20;99.90;;;;;;4910938;29;20237;-78
2023/02/03 16:03:35;;;;;;;11.07;10.47;;;7.20;99.90;;;;;;4914777;29;20242;-78
2023/02/03 16:06:08;;;;;;;10.43;9.83;;;7.20;99.90;;;;;;4910617;29;20663;-78
2023/02/03 16:08:39;;;;;;;10.63;9.93;;;7.20;99.90;;;;;;4902441;29;20207;-79